createdAt,value
2023-05-14T00:01:04.185Z,19147.7852
2023-05-14T00:02:12.333Z,19144.3574
2023-05-14T00:03:20.506Z,19149.2852
2023-05-14T00:04:28.275Z,19152.5723
2023-05-14T00:05:36.323Z,19152.0000
2023-05-14T00:06:44.457Z,19151.5723
2023-05-14T00:07:52.611Z,19152.7852
2023-05-14T00:09:00.629Z,19151.0723
2023-05-14T00:10:08.724Z,19152.1426
2023-05-14T00:11:16.771Z,19152.8574
2023-05-14T00:12:24.841Z,19156.5000
2023-05-14T00:13:33.108Z,19156.5723
2023-05-14T00:14:41.098Z,19153.0000
2023-05-14T00:15:49.067Z,19155.4277
2023-05-14T00:16:57.226Z,19155.7148
2023-05-14T00:18:05.340Z,19155.8574
2023-05-14T00:19:13.136Z,19154.7148
2023-05-14T00:20:21.322Z,19156.8574
2023-05-14T00:21:29.217Z,19158.4277
2023-05-14T00:22:37.414Z,19157.8574
2023-05-14T00:23:45.647Z,19157.7852
2023-05-14T00:24:53.544Z,19162.0000
2023-05-14T00:26:01.569Z,19161.1426
2023-05-14T00:27:09.662Z,19161.7852
2023-05-14T00:28:17.779Z,19161.2852
2023-05-14T00:29:25.883Z,19165.5723
2023-05-14T00:30:33.961Z,19164.2852
2023-05-14T00:31:41.913Z,19162.8574
2023-05-14T00:32:50.025Z,19164.5723
2023-05-14T00:33:57.879Z,19161.2148
2023-05-14T00:35:05.984Z,19166.7852
2023-05-14T00:36:14.005Z,19171.1426
2023-05-14T00:37:22.188Z,19167.6426
2023-05-14T00:38:30.233Z,19169.7852
2023-05-14T00:39:38.447Z,19171.6426
2023-05-14T00:40:46.426Z,19169.5000
2023-05-14T00:41:54.445Z,19177.5723
2023-05-14T00:43:02.511Z,19174.0000
2023-05-14T00:44:10.524Z,19171.6426
2023-05-14T00:45:18.616Z,19175.0000
2023-05-14T00:46:26.850Z,19173.4277
2023-05-14T00:47:34.981Z,19176.2148
2023-05-14T00:48:42.656Z,19173.2852
2023-05-14T00:49:50.759Z,19174.9277
2023-05-14T00:50:58.779Z,19173.0723
2023-05-14T00:52:07.014Z,19172.7852
2023-05-14T00:53:15.016Z,19171.7148
2023-05-14T00:54:23.096Z,19168.3574
2023-05-14T00:55:31.260Z,19166.7148
2023-05-14T00:56:39.305Z,19168.0000
2023-05-14T00:57:47.300Z,19169.4277
2023-05-14T00:58:55.302Z,19166.9277
2023-05-14T01:00:03.429Z,19169.2148
2023-05-14T01:01:11.600Z,19168.9277
2023-05-14T01:02:19.553Z,19170.0000
2023-05-14T01:03:27.632Z,19169.5000
2023-05-14T01:04:35.494Z,19170.3574
2023-05-14T01:05:43.571Z,19174.1426
2023-05-14T01:06:51.740Z,19171.5723
2023-05-14T01:07:59.921Z,19166.4277
2023-05-14T01:09:07.952Z,19168.9277
2023-05-14T01:10:15.942Z,19172.6426
2023-05-14T01:11:24.136Z,19171.0000
2023-05-14T01:12:32.068Z,19172.7148
2023-05-14T01:13:40.108Z,19173.9277
2023-05-14T01:14:48.235Z,19171.2148
2023-05-14T01:15:56.217Z,19171.7852
2023-05-14T01:17:04.321Z,19170.8574
2023-05-14T01:18:12.368Z,19173.5000
2023-05-14T01:19:20.269Z,19175.5723
2023-05-14T01:20:28.384Z,19173.7148
2023-05-14T01:21:36.518Z,19177.0000
2023-05-14T01:22:44.595Z,19171.8574
2023-05-14T01:23:52.722Z,19173.9277
2023-05-14T01:25:00.721Z,19170.1426
2023-05-14T01:26:08.835Z,19173.2148
2023-05-14T01:27:16.863Z,19170.9277
2023-05-14T01:28:24.891Z,19172.5723
2023-05-14T01:29:32.968Z,19173.7148
2023-05-14T01:30:41.026Z,19173.7148
2023-05-14T01:31:49.162Z,19172.7148
2023-05-14T01:32:57.085Z,19171.2148
2023-05-14T01:34:05.057Z,19171.0723
2023-05-14T01:35:13.185Z,19172.2148
2023-05-14T01:36:21.445Z,19173.7148
2023-05-14T01:37:29.581Z,19171.5723
2023-05-14T01:38:37.508Z,19165.7852
2023-05-14T01:39:45.473Z,19171.2852
2023-05-14T01:40:53.553Z,19171.7852
2023-05-14T01:42:01.684Z,19171.9277
2023-05-14T01:43:09.750Z,19171.3574
2023-05-14T01:44:17.753Z,19172.5000
2023-05-14T01:45:25.846Z,19171.4277
2023-05-14T01:46:34.042Z,19173.2148
2023-05-14T01:47:41.805Z,19176.2148
2023-05-14T01:48:49.859Z,19172.9277
2023-05-14T01:49:57.920Z,19175.2148
2023-05-14T01:51:06.098Z,19176.1426
2023-05-14T01:52:14.247Z,19174.4277
2023-05-14T01:53:22.205Z,19178.7852
2023-05-14T01:54:30.316Z,19176.7148
2023-05-14T01:55:38.307Z,19175.2852
2023-05-14T01:56:46.387Z,19171.9277
2023-05-14T01:57:54.436Z,19177.2148
2023-05-14T01:59:02.654Z,19179.6426
2023-05-14T02:00:10.678Z,19176.1426
2023-05-14T02:01:18.710Z,19178.8574
2023-05-14T02:02:26.591Z,19180.0723
2023-05-14T02:03:34.651Z,19181.3574
2023-05-14T02:04:42.709Z,19179.6426
2023-05-14T02:05:50.944Z,19183.6426
2023-05-14T02:06:58.940Z,19183.2148
2023-05-14T02:08:07.125Z,19181.0000
2023-05-14T02:09:15.072Z,19180.3574
2023-05-14T02:10:23.274Z,19182.2148
2023-05-14T02:11:31.239Z,19180.5000
2023-05-14T02:12:39.238Z,19178.3574
2023-05-14T02:13:47.330Z,19182.3574
2023-05-14T02:14:55.425Z,19178.6426
2023-05-14T02:16:03.658Z,19181.6426
2023-05-14T02:17:11.400Z,19179.1426
2023-05-14T02:18:19.401Z,19179.0723
2023-05-14T02:19:27.514Z,19178.0000
2023-05-14T02:20:35.700Z,19179.1426
2023-05-14T02:21:43.731Z,19179.7852
2023-05-14T02:22:51.840Z,19179.0000
2023-05-14T02:23:59.984Z,19178.5723
2023-05-14T02:25:07.922Z,19184.3574
2023-05-14T02:26:15.995Z,19181.2148
2023-05-14T02:27:24.062Z,19182.1426
2023-05-14T02:28:32.155Z,19182.7852
2023-05-14T02:29:40.232Z,19182.1426
2023-05-14T02:30:48.235Z,19181.6426
2023-05-14T02:31:56.213Z,19183.2148
2023-05-14T02:33:04.341Z,19182.0723
2023-05-14T02:34:12.361Z,19182.8574
2023-05-14T02:35:20.465Z,19185.8574
2023-05-14T02:36:28.515Z,19187.8574
2023-05-14T02:37:36.613Z,19182.4277
2023-05-14T02:38:44.674Z,19180.2148
2023-05-14T02:39:52.876Z,19183.2852
2023-05-14T02:41:00.763Z,19183.0000
2023-05-14T02:42:08.860Z,19181.1426
2023-05-14T02:43:16.893Z,19182.9277
2023-05-14T02:44:24.948Z,19182.5000
2023-05-14T02:45:33.038Z,19183.9277
2023-05-14T02:46:40.958Z,19187.0723
2023-05-14T02:47:49.036Z,19186.2852
2023-05-14T02:48:57.024Z,19185.0000
2023-05-14T02:50:05.217Z,19189.3574
2023-05-14T02:51:13.388Z,19187.0723
2023-05-14T02:52:21.370Z,19184.5000
2023-05-14T02:53:29.410Z,19187.0000
2023-05-14T02:54:37.513Z,19188.2148
2023-05-14T02:55:45.661Z,19190.0000
2023-05-14T02:56:53.707Z,19192.5723
2023-05-14T02:58:01.639Z,19190.6426
2023-05-14T02:59:09.676Z,19191.6426
2023-05-14T03:00:17.640Z,19191.2148
2023-05-14T03:01:25.779Z,19193.2148
2023-05-14T03:02:33.907Z,19192.4277
2023-05-14T03:03:41.957Z,19190.3574
2023-05-14T03:04:50.216Z,19187.0723
2023-05-14T03:05:58.071Z,19186.2148
2023-05-14T03:07:06.136Z,19190.7852
2023-05-14T03:08:14.229Z,19189.7148
2023-05-14T03:09:22.308Z,19190.0723
2023-05-14T03:10:30.292Z,19189.7852
2023-05-14T03:11:38.485Z,19189.0723
2023-05-14T03:12:46.487Z,19186.8574
2023-05-14T03:13:54.521Z,19187.5000
2023-05-14T03:15:02.415Z,19191.2148
2023-05-14T03:16:10.460Z,19191.8574
2023-05-14T03:17:18.543Z,19188.5723
2023-05-14T03:18:26.751Z,19191.7852
2023-05-14T03:19:34.841Z,19193.5000
2023-05-14T03:20:42.691Z,19189.0723
2023-05-14T03:21:50.849Z,19189.6426
2023-05-14T03:22:58.954Z,19189.5723
2023-05-14T03:24:06.998Z,19191.4277
2023-05-14T03:25:15.083Z,19192.7852
2023-05-14T03:26:23.105Z,19193.0723
2023-05-14T03:27:31.120Z,19197.8574
2023-05-14T03:28:39.191Z,19195.7148
2023-05-14T03:29:47.110Z,19201.2852
2023-05-14T03:30:55.258Z,19199.6426
2023-05-14T03:32:03.259Z,19203.0723
2023-05-14T03:33:11.671Z,19202.8574
2023-05-14T03:34:19.473Z,19207.5000
2023-05-14T03:35:27.551Z,19203.4277
2023-05-14T03:36:35.721Z,19203.1426
2023-05-14T03:37:43.663Z,19201.5723
2023-05-14T03:38:51.731Z,19202.4277
2023-05-14T03:39:59.741Z,19204.1426
2023-05-14T03:41:07.814Z,19203.5000
2023-05-14T03:42:15.951Z,19206.2852
2023-05-14T03:43:23.921Z,19207.8574
2023-05-14T03:44:31.861Z,19209.6426
2023-05-14T03:45:39.895Z,19206.5723
2023-05-14T03:46:47.975Z,19208.0723
2023-05-14T03:47:56.403Z,19205.5723
2023-05-14T03:49:04.360Z,19206.7148
2023-05-14T03:50:12.293Z,19205.3574
2023-05-14T03:51:20.399Z,19206.8574
2023-05-14T03:52:28.637Z,19204.4277
2023-05-14T03:53:36.481Z,19203.2148
2023-05-14T03:54:44.538Z,19202.1426
2023-05-14T03:55:52.545Z,19198.7852
2023-05-14T03:57:00.854Z,19200.2148
2023-05-14T03:58:08.729Z,19198.6426
2023-05-14T03:59:16.655Z,19199.0000
2023-05-14T04:00:24.885Z,19201.7852
2023-05-14T04:01:32.721Z,19202.3574
2023-05-14T04:02:41.101Z,19200.3574
2023-05-14T04:03:49.160Z,19198.5723
2023-05-14T04:04:57.089Z,19196.5723
2023-05-14T04:06:05.294Z,19197.4277
2023-05-14T04:07:13.110Z,19195.5723
2023-05-14T04:08:21.151Z,19196.8574
2023-05-14T04:09:29.232Z,19196.7852
2023-05-14T04:10:37.309Z,19197.6426
2023-05-14T04:11:45.475Z,19197.7148
2023-05-14T04:12:53.497Z,19196.7148
2023-05-14T04:14:01.425Z,19197.2852
2023-05-14T04:15:09.499Z,19197.1426
2023-05-14T04:16:17.657Z,19197.0000
2023-05-14T04:17:25.904Z,19196.5000
2023-05-14T04:18:33.985Z,19198.5723
2023-05-14T04:19:41.857Z,19195.0723
2023-05-14T04:20:49.915Z,19196.0000
2023-05-14T04:21:57.881Z,19192.9277
2023-05-14T04:23:06.022Z,19191.5723
2023-05-14T04:24:14.138Z,19188.8574
2023-05-14T04:25:22.270Z,19187.4277
2023-05-14T04:26:30.194Z,19188.6426
2023-05-14T04:27:38.333Z,19186.5723
2023-05-14T04:28:46.208Z,19186.9277
2023-05-14T04:29:54.248Z,19187.7852
2023-05-14T04:31:02.338Z,19186.5000
2023-05-14T04:32:10.498Z,19183.5000
2023-05-14T04:33:18.596Z,19183.7148
2023-05-14T04:34:26.834Z,19184.7148
2023-05-14T04:35:34.672Z,19185.6426
2023-05-14T04:36:42.830Z,19183.7852
2023-05-14T04:37:50.769Z,19182.3574
2023-05-14T04:38:58.966Z,19181.3574
2023-05-14T04:40:06.947Z,19178.4277
2023-05-14T04:41:14.967Z,19181.5723
2023-05-14T04:42:23.119Z,19178.7852
2023-05-14T04:43:30.961Z,19178.2148
2023-05-14T04:44:39.045Z,19180.6426
2023-05-14T04:45:47.067Z,19180.9277
2023-05-14T04:46:55.290Z,19178.6426
2023-05-14T04:48:03.343Z,19176.5723
2023-05-14T04:49:11.445Z,19178.0723
2023-05-14T04:50:19.582Z,19176.6426
2023-05-14T04:51:27.494Z,19177.0723
2023-05-14T04:52:35.558Z,19176.5000
2023-05-14T04:53:43.622Z,19178.0000
2023-05-14T04:54:51.695Z,19174.8574
2023-05-14T04:55:59.803Z,19174.5000
2023-05-14T04:57:07.783Z,19174.6426
2023-05-14T04:58:15.722Z,19177.2148
2023-05-14T04:59:23.772Z,19174.7852
2023-05-14T05:00:31.853Z,19172.7148
2023-05-14T05:01:40.160Z,19173.5723
2023-05-14T05:02:48.106Z,19170.9277
2023-05-14T05:03:56.261Z,19170.4277
2023-05-14T05:05:04.277Z,19172.0000
2023-05-14T05:06:12.546Z,19171.0000
2023-05-14T05:07:20.447Z,19167.7148
2023-05-14T05:08:28.375Z,19169.9277
2023-05-14T05:09:36.449Z,19166.1426
2023-05-14T05:10:44.569Z,19163.7852
2023-05-14T05:11:52.556Z,19165.7852
2023-05-14T05:13:00.576Z,19166.2852
2023-05-14T05:14:08.569Z,19165.3574
2023-05-14T05:15:16.611Z,19168.0000
2023-05-14T05:16:24.857Z,19164.6426
2023-05-14T05:17:32.925Z,19164.5723
2023-05-14T05:18:41.092Z,19163.6426
2023-05-14T05:19:48.979Z,19163.4277
2023-05-14T05:20:57.140Z,19164.5723
2023-05-14T05:22:05.257Z,19163.2148
2023-05-14T05:23:13.048Z,19162.0723
2023-05-14T05:24:21.308Z,19159.0000
2023-05-14T05:25:29.505Z,19160.0000
2023-05-14T05:26:37.332Z,19158.6426
2023-05-14T05:27:45.313Z,19157.3574
2023-05-14T05:28:53.292Z,19153.2852
2023-05-14T05:30:01.439Z,19152.2852
2023-05-14T05:31:09.558Z,19149.8574
2023-05-14T05:32:17.633Z,19153.5000
2023-05-14T05:33:25.685Z,19150.8574
2023-05-14T05:34:33.720Z,19148.7852
2023-05-14T05:35:41.940Z,19151.0000
2023-05-14T05:36:49.864Z,19151.0723
2023-05-14T05:38:00.528Z,19152.0723
2023-05-14T05:39:10.932Z,19154.4004
2023-05-14T05:40:18.948Z,19150.7852
2023-05-14T05:41:26.890Z,19151.6426
2023-05-14T05:42:34.874Z,19150.4277
2023-05-14T05:43:42.944Z,19150.2148
2023-05-14T05:44:51.134Z,19149.3574
2023-05-14T05:45:59.158Z,19149.7852
2023-05-14T05:47:07.451Z,19150.5723
2023-05-14T05:48:15.312Z,19147.4277
2023-05-14T05:49:23.477Z,19149.3574
2023-05-14T05:50:31.389Z,19149.5000
2023-05-14T05:51:39.471Z,19151.2148
2023-05-14T05:52:47.573Z,19153.4277
2023-05-14T05:53:55.604Z,19148.8574
2023-05-14T05:55:03.790Z,19148.5000
2023-05-14T05:56:11.566Z,19145.1426
2023-05-14T05:57:19.638Z,19145.1426
2023-05-14T05:58:27.768Z,19145.7148
2023-05-14T05:59:35.871Z,19143.6426
2023-05-14T06:00:44.022Z,19143.2148
2023-05-14T06:01:52.086Z,19142.6426
2023-05-14T06:03:00.312Z,19142.5723
2023-05-14T06:04:08.170Z,19138.5000
2023-05-14T06:05:16.303Z,19136.6426
2023-05-14T06:06:24.224Z,19135.7852
2023-05-14T06:07:32.299Z,19134.2148
2023-05-14T06:08:40.396Z,19134.0000
2023-05-14T06:09:48.456Z,19132.8574
2023-05-14T06:10:56.362Z,19133.4277
2023-05-14T06:12:04.378Z,19132.8574
2023-05-14T06:13:12.432Z,19136.6426
2023-05-14T06:14:20.626Z,19133.5723
2023-05-14T06:15:28.801Z,19135.5723
2023-05-14T06:16:36.766Z,19133.6426
2023-05-14T06:17:44.836Z,19135.5000
2023-05-14T06:18:53.047Z,19133.7148
2023-05-14T06:20:00.925Z,19137.5723
2023-05-14T06:21:09.013Z,19141.2148
2023-05-14T06:22:17.036Z,19141.8574
2023-05-14T06:23:25.091Z,19144.7852
2023-05-14T06:24:33.045Z,19143.7148
2023-05-14T06:25:41.083Z,19144.5723
2023-05-14T06:26:49.183Z,19143.3574
2023-05-14T06:27:57.176Z,19140.7852
2023-05-14T06:29:05.386Z,19145.2148
2023-05-14T06:30:13.401Z,19144.6426
2023-05-14T06:31:21.544Z,19146.2852
2023-05-14T06:32:29.609Z,19148.2148
2023-05-14T06:33:37.662Z,19148.4277
2023-05-14T06:34:45.784Z,19151.0723
2023-05-14T06:35:53.937Z,19150.5000
2023-05-14T06:37:01.830Z,19146.2148
2023-05-14T06:38:10.000Z,19145.4277
2023-05-14T06:39:17.908Z,19146.5723
2023-05-14T06:40:25.966Z,19144.6426
2023-05-14T06:41:33.874Z,19143.1426
2023-05-14T06:42:41.949Z,19140.9277
2023-05-14T06:43:50.164Z,19141.5000
2023-05-14T06:44:58.230Z,19142.5723
2023-05-14T06:46:06.270Z,19141.3574
2023-05-14T06:47:14.356Z,19140.0000
2023-05-14T06:48:22.428Z,19136.8574
2023-05-14T06:49:30.467Z,19134.0723
2023-05-14T06:50:38.619Z,19135.2148
2023-05-14T06:51:46.565Z,19137.5000
2023-05-14T06:52:54.609Z,19140.7852
2023-05-14T06:54:02.694Z,19138.7852
2023-05-14T06:55:10.632Z,19138.5723
2023-05-14T06:56:18.655Z,19138.4277
2023-05-14T06:57:26.721Z,19137.7852
2023-05-14T06:58:34.959Z,19137.6426
2023-05-14T06:59:42.982Z,19131.8574
2023-05-14T07:00:51.071Z,19132.2148
2023-05-14T07:01:59.161Z,19123.8574
2023-05-14T07:03:07.213Z,19122.0000
2023-05-14T07:04:15.267Z,19120.2148
2023-05-14T07:05:23.220Z,19121.9277
2023-05-14T07:06:31.392Z,19124.1426
2023-05-14T07:07:39.517Z,19123.0723
2023-05-14T07:08:47.389Z,19127.1426
2023-05-14T07:09:55.380Z,19125.2852
2023-05-14T07:11:03.445Z,19127.8574
2023-05-14T07:12:11.563Z,19129.0723
2023-05-14T07:13:19.688Z,19130.9277
2023-05-14T07:14:27.692Z,19131.5723
2023-05-14T07:15:35.769Z,19132.3574
2023-05-14T07:16:43.882Z,19132.2148
2023-05-14T07:17:51.994Z,19133.2148
2023-05-14T07:18:59.976Z,19131.4277
2023-05-14T07:20:08.046Z,19128.0723
2023-05-14T07:21:16.066Z,19128.8574
2023-05-14T07:22:24.131Z,19134.2148
2023-05-14T07:23:32.196Z,19131.0723
2023-05-14T07:24:40.151Z,19132.4277
2023-05-14T07:25:48.206Z,19131.4277
2023-05-14T07:26:56.285Z,19130.9277
2023-05-14T07:28:04.429Z,19128.0723
2023-05-14T07:29:12.522Z,19126.6426
2023-05-14T07:30:20.541Z,19126.5000
2023-05-14T07:31:28.673Z,19122.6426
2023-05-14T07:32:36.657Z,19122.7148
2023-05-14T07:33:44.666Z,19119.4277
2023-05-14T07:34:52.858Z,19116.5000
2023-05-14T07:36:00.804Z,19107.9277
2023-05-14T07:37:08.883Z,19105.9277
2023-05-14T07:38:17.020Z,19102.8574
2023-05-14T07:39:24.955Z,19098.2852
2023-05-14T07:40:33.121Z,19092.8574
2023-05-14T07:41:41.027Z,19089.4277
2023-05-14T07:42:49.200Z,19091.6426
2023-05-14T07:43:57.618Z,19093.5000
2023-05-14T07:45:05.381Z,19097.4277
2023-05-14T07:46:13.440Z,19093.5723
2023-05-14T07:47:21.443Z,19092.9277
2023-05-14T07:48:29.520Z,19097.9277
2023-05-14T07:49:37.554Z,19093.9277
2023-05-14T07:50:45.630Z,19089.7852
2023-05-14T07:51:53.709Z,19082.7852
2023-05-14T07:53:01.770Z,19082.2852
2023-05-14T07:54:09.680Z,19079.6426
2023-05-14T07:55:17.728Z,19079.7148
2023-05-14T07:56:25.788Z,19072.9277
2023-05-14T07:57:34.178Z,19070.5000
2023-05-14T07:58:41.973Z,19069.0000
2023-05-14T07:59:50.154Z,19068.2852
2023-05-14T08:00:58.099Z,19067.3574
2023-05-14T08:02:06.185Z,19061.7852
2023-05-14T08:03:14.415Z,19061.8574
2023-05-14T08:04:22.414Z,19064.0723
2023-05-14T08:05:30.337Z,19061.5000
2023-05-14T08:06:38.498Z,19064.2852
2023-05-14T08:07:46.501Z,19063.9277
2023-05-14T08:08:54.452Z,19060.2852
2023-05-14T08:10:02.478Z,19062.0000
2023-05-14T08:11:10.610Z,19063.7148
2023-05-14T08:12:18.702Z,19063.0723
2023-05-14T08:13:26.917Z,19063.7148
2023-05-14T08:14:34.863Z,19064.2852
2023-05-14T08:15:42.968Z,19063.2852
2023-05-14T08:16:51.040Z,19065.7148
2023-05-14T08:17:59.017Z,19070.2852
2023-05-14T08:19:07.107Z,19068.1426
2023-05-14T08:20:15.343Z,19069.7148
2023-05-14T08:21:23.257Z,19072.5723
2023-05-14T08:22:31.341Z,19077.4277
2023-05-14T08:23:39.260Z,19076.0723
2023-05-14T08:24:47.314Z,19073.0723
2023-05-14T08:25:55.406Z,19069.5000
2023-05-14T08:27:03.412Z,19073.6426
2023-05-14T08:28:11.623Z,19070.5000
2023-05-14T08:29:19.656Z,19068.7148
2023-05-14T08:30:27.891Z,19062.9277
2023-05-14T08:31:35.821Z,19063.5000
2023-05-14T08:32:43.868Z,19065.7148
2023-05-14T08:33:51.890Z,19064.2148
2023-05-14T08:34:59.957Z,19062.9277
2023-05-14T08:36:08.072Z,19062.0000
2023-05-14T08:37:16.139Z,19063.3574
2023-05-14T08:38:23.984Z,19062.8574
2023-05-14T08:39:32.080Z,19064.1426
2023-05-14T08:40:40.107Z,19064.5723
2023-05-14T08:41:48.298Z,19068.1426
2023-05-14T08:42:56.456Z,19070.5723
2023-05-14T08:44:04.413Z,19073.8574
2023-05-14T08:45:12.476Z,19071.1426
2023-05-14T08:46:20.550Z,19074.1426
2023-05-14T08:47:28.626Z,19074.4277
2023-05-14T08:48:36.728Z,19071.3574
2023-05-14T08:49:44.705Z,19070.6426
2023-05-14T08:50:52.733Z,19069.2148
2023-05-14T08:52:00.813Z,19067.4277
2023-05-14T08:53:08.753Z,19068.2148
2023-05-14T08:54:16.846Z,19068.5723
2023-05-14T08:55:24.836Z,19065.9277
2023-05-14T08:56:33.070Z,19064.0000
2023-05-14T08:57:41.106Z,19059.2148
2023-05-14T08:58:49.132Z,19055.4277
2023-05-14T08:59:57.272Z,19050.2852
2023-05-14T09:01:05.224Z,19047.6426
2023-05-14T09:02:13.347Z,19043.6426
2023-05-14T09:03:21.423Z,19042.3574
2023-05-14T09:04:29.414Z,19039.4277
2023-05-14T09:05:37.553Z,19037.3574
2023-05-14T09:06:45.497Z,19037.7148
2023-05-14T09:07:53.480Z,19045.1426
2023-05-14T09:09:01.547Z,19045.7852
2023-05-14T09:10:09.564Z,19044.5723
2023-05-14T09:11:17.980Z,19046.5723
2023-05-14T09:12:25.766Z,19047.7148
2023-05-14T09:13:33.827Z,19049.0000
2023-05-14T09:14:41.956Z,19050.2852
2023-05-14T09:15:49.997Z,19048.7148
2023-05-14T09:16:58.061Z,19053.3574
2023-05-14T09:18:06.303Z,19048.1426
2023-05-14T09:19:14.198Z,19048.2852
2023-05-14T09:20:22.718Z,19047.9277
2023-05-14T09:21:32.178Z,19048.7852
2023-05-14T09:22:43.104Z,19050.0664
2023-05-14T09:23:51.274Z,19046.6426
2023-05-14T09:24:59.276Z,19047.9277
2023-05-14T09:26:07.534Z,19044.5000
2023-05-14T09:27:15.410Z,19046.5723
2023-05-14T09:28:23.420Z,19048.9277
2023-05-14T09:29:31.527Z,19051.5000
2023-05-14T09:30:39.618Z,19051.0723
2023-05-14T09:31:47.694Z,19051.2852
2023-05-14T09:32:55.813Z,19050.3574
2023-05-14T09:34:03.826Z,19044.7148
2023-05-14T09:35:11.757Z,19042.5000
2023-05-14T09:36:19.824Z,19046.1426
2023-05-14T09:37:27.855Z,19045.5723
2023-05-14T09:38:35.980Z,19049.0000
2023-05-14T09:39:44.094Z,19049.7148
2023-05-14T09:40:52.189Z,19051.0723
2023-05-14T09:42:00.200Z,19053.2852
2023-05-14T09:43:08.264Z,19045.2148
2023-05-14T09:44:16.343Z,19042.4277
2023-05-14T09:45:24.451Z,19044.7852
2023-05-14T09:46:32.415Z,19041.9277
2023-05-14T09:47:40.564Z,19040.1426
2023-05-14T09:48:48.506Z,19037.2148
2023-05-14T09:49:56.517Z,19034.5000
2023-05-14T09:51:04.910Z,19032.7148
2023-05-14T09:52:12.638Z,19031.4277
2023-05-14T09:53:20.846Z,19028.6426
2023-05-14T09:54:28.877Z,19022.4277
2023-05-14T09:55:36.911Z,19017.0000
2023-05-14T09:56:45.007Z,19010.0723
2023-05-14T09:57:53.040Z,19002.0000
2023-05-14T09:59:01.132Z,18995.0000
2023-05-14T10:00:09.056Z,18990.9277
2023-05-14T10:01:17.254Z,18987.6426
2023-05-14T10:02:25.553Z,18989.7148
2023-05-14T10:03:33.253Z,18991.3574
2023-05-14T10:04:41.310Z,18997.7852
2023-05-14T10:05:49.367Z,19011.1426
2023-05-14T10:06:57.559Z,19018.4277
2023-05-14T10:08:05.601Z,19022.9277
2023-05-14T10:09:13.673Z,19029.0723
2023-05-14T10:10:21.959Z,19032.7148
2023-05-14T10:11:29.804Z,19034.0000
2023-05-14T10:12:37.857Z,19035.0723
2023-05-14T10:13:46.082Z,19038.0000
2023-05-14T10:14:53.977Z,19039.2148
2023-05-14T10:16:02.045Z,19037.5000
2023-05-14T10:17:10.246Z,19040.2852
2023-05-14T10:18:18.149Z,19036.8574
2023-05-14T10:19:26.225Z,19033.8574
2023-05-14T10:20:34.103Z,19039.0723
2023-05-14T10:21:42.315Z,19040.0000
2023-05-14T10:22:50.360Z,19033.8574
2023-05-14T10:23:58.493Z,19035.2852
2023-05-14T10:25:06.526Z,19037.1426
2023-05-14T10:26:14.560Z,19039.5000
2023-05-14T10:27:22.645Z,19034.7148
2023-05-14T10:28:30.687Z,19031.7852
2023-05-14T10:29:38.826Z,19035.4277
2023-05-14T10:30:46.850Z,19028.1426
2023-05-14T10:31:54.820Z,19026.5000
2023-05-14T10:33:02.792Z,19025.2148
2023-05-14T10:34:10.839Z,19025.9277
2023-05-14T10:35:18.914Z,19026.2852
2023-05-14T10:36:27.104Z,19025.7148
2023-05-14T10:37:35.150Z,19030.3574
2023-05-14T10:38:43.331Z,19028.5723
2023-05-14T10:39:51.259Z,19026.5000
2023-05-14T10:40:59.302Z,19033.7148
2023-05-14T10:42:07.496Z,19036.4277
2023-05-14T10:43:15.420Z,19043.2148
2023-05-14T10:44:23.688Z,19040.8574
2023-05-14T10:45:31.569Z,19040.6426
2023-05-14T10:46:39.718Z,19036.7148
2023-05-14T10:47:47.619Z,19044.2852
2023-05-14T10:48:55.582Z,19039.7148
2023-05-14T10:50:03.656Z,19036.9277
2023-05-14T10:51:11.938Z,19040.7148
2023-05-14T10:52:19.912Z,19036.2852
2023-05-14T10:53:28.039Z,19037.2148
2023-05-14T10:54:36.164Z,19031.1426
2023-05-14T10:55:44.067Z,19023.2852
2023-05-14T10:56:52.136Z,19021.5723
2023-05-14T10:58:00.223Z,19009.0723
2023-05-14T10:59:08.276Z,18997.5723
2023-05-14T11:00:16.317Z,18986.7148
2023-05-14T11:01:24.433Z,18986.2148
2023-05-14T11:02:32.334Z,18974.7852
2023-05-14T11:03:40.395Z,18954.2852
2023-05-14T11:04:48.473Z,18928.5723
2023-05-14T11:05:56.826Z,18917.6426
2023-05-14T11:07:04.701Z,18927.2148
2023-05-14T11:08:12.763Z,18929.5000
2023-05-14T11:09:20.796Z,18921.7852
2023-05-14T11:10:28.987Z,18915.2148
2023-05-14T11:11:36.928Z,18904.7852
2023-05-14T11:12:44.977Z,18895.3574
2023-05-14T11:13:52.989Z,18887.7852
2023-05-14T11:15:01.083Z,18890.0723
2023-05-14T11:16:21.977Z,18886.0000
2023-05-14T11:17:21.941Z,18893.1992
2023-05-14T11:18:30.067Z,18898.2852
2023-05-14T11:19:38.066Z,18905.6426
2023-05-14T11:20:46.240Z,18914.7852
2023-05-14T11:21:54.361Z,18924.7148
2023-05-14T11:23:02.373Z,18938.0723
2023-05-14T11:24:10.416Z,18952.5723
2023-05-14T11:25:18.455Z,18963.0000
2023-05-14T11:26:26.685Z,18975.5000
2023-05-14T11:27:34.666Z,18986.0723
2023-05-14T11:28:42.629Z,18993.0000
2023-05-14T11:29:50.802Z,19004.0723
2023-05-14T11:30:58.763Z,19018.2852
2023-05-14T11:32:06.759Z,19024.0000
2023-05-14T11:33:14.880Z,19030.8574
2023-05-14T11:34:22.850Z,19038.3574
2023-05-14T11:35:31.024Z,19045.5000
2023-05-14T11:36:39.045Z,19051.0000
2023-05-14T11:37:47.098Z,19056.5723
2023-05-14T11:38:55.223Z,19060.7148
2023-05-14T11:40:03.345Z,19062.3574
2023-05-14T11:41:11.288Z,19063.5000
2023-05-14T11:42:19.532Z,19062.0723
2023-05-14T11:43:27.439Z,19061.6426
2023-05-14T11:44:35.498Z,19057.4277
2023-05-14T11:45:43.536Z,19054.4277
2023-05-14T11:46:51.429Z,19055.6426
2023-05-14T11:47:59.508Z,19050.6426
2023-05-14T11:49:07.553Z,19049.0000
2023-05-14T11:50:15.857Z,19043.2148
2023-05-14T11:51:23.807Z,19036.9277
2023-05-14T11:52:31.854Z,19038.7852
2023-05-14T11:53:39.894Z,19040.0000
2023-05-14T11:54:47.980Z,19041.4277
2023-05-14T11:55:56.135Z,19041.0000
2023-05-14T11:57:04.095Z,19046.0000
2023-05-14T11:58:12.184Z,19048.0723
2023-05-14T11:59:20.363Z,19050.0723
2023-05-14T12:00:28.273Z,19049.7148
2023-05-14T12:01:36.235Z,19049.3574
2023-05-14T12:02:44.302Z,19048.0000
2023-05-14T12:03:52.478Z,19048.0000
2023-05-14T12:05:00.553Z,19047.0000
2023-05-14T12:06:08.589Z,19046.6426
2023-05-14T12:07:16.731Z,19048.0000
2023-05-14T12:08:24.655Z,19047.0000
2023-05-14T12:09:32.696Z,19045.0723
2023-05-14T12:10:40.770Z,19052.7148
2023-05-14T12:11:48.806Z,19056.3574
2023-05-14T12:12:56.916Z,19065.4277
2023-05-14T12:14:05.164Z,19068.5723
2023-05-14T12:15:13.015Z,19077.0723
2023-05-14T12:16:21.005Z,19084.1426
2023-05-14T12:17:29.083Z,19090.4277
2023-05-14T12:18:37.241Z,19096.5000
2023-05-14T12:19:45.275Z,19099.2852
2023-05-14T12:20:53.297Z,19106.3574
2023-05-14T12:22:01.388Z,19105.0723
2023-05-14T12:23:09.602Z,19108.6426
2023-05-14T12:24:17.684Z,19115.0723
2023-05-14T12:25:25.634Z,19118.5723
2023-05-14T12:26:33.799Z,19125.2852
2023-05-14T12:27:41.721Z,19124.7852
2023-05-14T12:28:49.768Z,19126.1426
2023-05-14T12:30:01.985Z,19127.7852
2023-05-14T12:31:10.706Z,19125.0664
2023-05-14T12:32:18.765Z,19127.5723
2023-05-14T12:33:26.816Z,19129.4277
2023-05-14T12:34:37.227Z,19128.0000
2023-05-14T12:35:47.932Z,19126.5332